createdAt,value
2018-11-23T00:01:01.138Z,84.87
2018-11-23T00:03:44.673Z,101.50
2018-11-23T00:06:17.454Z,98.82
2018-11-23T00:08:52.183Z,76.57
2018-11-23T00:11:30.289Z,106.32
2018-11-23T00:14:01.074Z,90.85
2018-11-23T00:16:32.793Z,88.12
2018-11-23T00:19:05.155Z,87.22
2018-11-23T00:21:44.184Z,84.10
2018-11-23T00:24:21.357Z,93.75
2018-11-23T00:26:56.711Z,102.12
2018-11-23T00:29:31.325Z,75.32
2018-11-23T00:32:04.797Z,80.57
2018-11-23T00:34:36.787Z,93.17
2018-11-23T00:37:13.677Z,82.08
2018-11-23T00:39:44.872Z,88.10
2018-11-23T00:42:15.556Z,68.40
2018-11-23T00:44:48.031Z,84.47
2018-11-23T00:47:18.956Z,91.82
2018-11-23T00:49:50.304Z,97.05
2018-11-23T00:52:21.053Z,81.35
2018-11-23T00:54:53.015Z,88.92
2018-11-23T00:57:23.766Z,98.72
2018-11-23T00:59:58.271Z,99.05
2018-11-23T01:02:32.489Z,93.78
2018-11-23T01:05:04.946Z,72.70
2018-11-23T01:07:38.154Z,82.00
2018-11-23T01:10:15.118Z,81.80
2018-11-23T01:12:46.484Z,82.45
2018-11-23T01:15:22.237Z,85.42
2018-11-23T01:17:54.403Z,85.85
2018-11-23T01:20:27.902Z,101.33
2018-11-23T01:23:00.158Z,91.12
2018-11-23T01:25:32.133Z,84.35
2018-11-23T01:28:03.893Z,77.80
2018-11-23T01:30:36.554Z,67.10
2018-11-23T01:33:12.227Z,84.67
2018-11-23T01:35:44.177Z,112.08
2018-11-23T01:38:14.306Z,105.35
2018-11-23T01:40:48.010Z,118.00
2018-11-23T01:43:21.999Z,81.15
2018-11-23T01:45:53.661Z,99.95
2018-11-23T01:48:25.742Z,76.30
2018-11-23T01:50:59.036Z,98.97
2018-11-23T01:53:32.228Z,94.42
2018-11-23T01:56:06.856Z,97.27
2018-11-23T01:58:39.536Z,97.67
2018-11-23T02:01:13.442Z,104.47
2018-11-23T02:03:44.697Z,81.85
2018-11-23T02:06:17.163Z,100.67
2018-11-23T02:08:48.437Z,80.30
2018-11-23T02:11:18.020Z,102.82
2018-11-23T02:13:50.188Z,94.87
2018-11-23T02:16:20.919Z,84.50
2018-11-23T02:18:50.695Z,80.50
2018-11-23T02:21:20.752Z,113.50
2018-11-23T02:23:51.694Z,99.58
2018-11-23T02:26:22.528Z,92.62
2018-11-23T02:28:55.878Z,96.75
2018-11-23T02:31:34.359Z,98.40
2018-11-23T02:34:05.686Z,99.07
2018-11-23T02:36:38.829Z,79.37
2018-11-23T02:39:12.375Z,96.02
2018-11-23T02:41:43.594Z,118.67
2018-11-23T02:44:13.451Z,88.62
2018-11-23T02:46:43.557Z,107.78
2018-11-23T02:49:14.497Z,90.50
2018-11-23T02:51:45.708Z,91.70
2018-11-23T02:54:15.542Z,103.32
2018-11-23T02:56:47.413Z,92.62
2018-11-23T02:59:17.538Z,96.87
2018-11-23T03:01:49.291Z,86.87
2018-11-23T03:04:20.134Z,92.22
2018-11-23T03:06:52.094Z,87.60
2018-11-23T03:09:22.112Z,102.15
2018-11-23T03:11:53.559Z,95.40
2018-11-23T03:14:26.230Z,88.90
2018-11-23T03:16:56.973Z,98.97
2018-11-23T03:19:28.940Z,93.00
2018-11-23T03:21:58.754Z,97.70
2018-11-23T03:24:28.561Z,87.40
2018-11-23T03:27:01.856Z,98.00
2018-11-23T03:29:35.457Z,95.87
2018-11-23T03:32:07.727Z,99.03
2018-11-23T03:34:37.526Z,93.30
2018-11-23T03:37:11.454Z,91.65
2018-11-23T03:39:42.268Z,95.83
2018-11-23T03:42:14.760Z,102.50
2018-11-23T03:44:45.802Z,91.57
2018-11-23T03:47:16.741Z,75.85
2018-11-23T03:49:46.460Z,97.50
2018-11-23T03:52:16.679Z,88.52
2018-11-23T03:54:48.448Z,83.35
2018-11-23T03:57:23.380Z,96.57
2018-11-23T03:59:59.735Z,85.92
2018-11-23T04:02:35.599Z,96.30
2018-11-23T04:05:10.942Z,97.65
2018-11-23T04:07:41.879Z,97.60
2018-11-23T04:10:17.307Z,84.35
2018-11-23T04:12:57.169Z,100.38
2018-11-23T04:15:32.047Z,75.85
2018-11-23T04:18:11.949Z,93.42
2018-11-23T04:20:47.802Z,120.92
2018-11-23T04:23:20.939Z,87.12
2018-11-23T04:26:01.947Z,99.58
2018-11-23T04:28:37.969Z,99.58
2018-11-23T04:31:08.429Z,109.37
2018-11-23T04:33:41.850Z,84.47
2018-11-23T04:36:14.120Z,95.55
2018-11-23T04:38:46.637Z,77.15
2018-11-23T04:41:20.547Z,74.35
2018-11-23T04:43:52.708Z,96.40
2018-11-23T04:46:25.089Z,89.67
2018-11-23T04:49:01.137Z,82.55
2018-11-23T04:51:35.761Z,97.78
2018-11-23T04:54:11.306Z,83.97
2018-11-23T04:56:48.104Z,72.22
2018-11-23T04:59:18.608Z,95.28
2018-11-23T05:01:49.144Z,76.42
2018-11-23T05:04:20.048Z,89.32
2018-11-23T05:06:52.397Z,72.42
2018-11-23T05:09:22.495Z,95.07
2018-11-23T05:11:55.780Z,93.40
2018-11-23T05:14:27.338Z,101.65
2018-11-23T05:17:01.109Z,81.17
2018-11-23T05:19:34.096Z,72.05
2018-11-23T05:22:08.910Z,88.55
2018-11-23T05:24:45.938Z,109.03
2018-11-23T05:27:20.322Z,81.20
2018-11-23T05:29:57.813Z,90.15
2018-11-23T05:32:31.957Z,89.03
2018-11-23T05:35:05.832Z,101.85
2018-11-23T05:37:40.131Z,98.25
2018-11-23T05:40:23.172Z,75.50
2018-11-23T05:43:04.531Z,103.83
2018-11-23T05:45:39.616Z,78.92
2018-11-23T05:48:12.885Z,96.70
2018-11-23T05:50:48.865Z,83.45
2018-11-23T05:53:19.392Z,100.85
2018-11-23T05:55:53.095Z,91.45
2018-11-23T05:58:23.907Z,77.37
2018-11-23T06:00:55.426Z,96.12
2018-11-23T06:03:26.484Z,93.33
2018-11-23T06:05:57.971Z,87.45
2018-11-23T06:08:29.372Z,81.10
2018-11-23T06:11:00.220Z,101.72
2018-11-23T06:13:31.794Z,76.80
2018-11-23T06:16:03.275Z,93.85
2018-11-23T06:18:35.237Z,81.40
2018-11-23T06:21:06.738Z,102.80
2018-11-23T06:23:36.846Z,80.87
2018-11-23T06:26:14.135Z,97.20
2018-11-23T06:28:44.778Z,100.35
2018-11-23T06:31:15.503Z,93.07
2018-11-23T06:33:59.035Z,86.20
2018-11-23T06:36:33.415Z,84.28
2018-11-23T06:39:07.373Z,104.80
2018-11-23T06:41:37.077Z,103.70
2018-11-23T06:44:08.422Z,84.90
2018-11-23T06:46:40.590Z,92.50
2018-11-23T06:49:11.536Z,99.25
2018-11-23T06:51:44.014Z,75.42
2018-11-23T06:54:16.865Z,90.03
2018-11-23T06:56:49.342Z,91.80
2018-11-23T06:59:22.836Z,77.92
2018-11-23T07:01:57.971Z,76.35
2018-11-23T07:04:29.743Z,89.62
2018-11-23T07:07:05.104Z,80.80
2018-11-23T07:09:37.326Z,115.05
2018-11-23T07:12:09.811Z,73.45
2018-11-23T07:14:46.703Z,73.65
2018-11-23T07:17:19.161Z,82.45
2018-11-23T07:19:53.982Z,95.67
2018-11-23T07:22:28.095Z,83.55
2018-11-23T07:24:58.603Z,74.97
2018-11-23T07:27:34.426Z,96.87
2018-11-23T07:30:06.081Z,73.62
2018-11-23T07:32:42.013Z,85.15
2018-11-23T07:35:17.887Z,93.05
2018-11-23T07:37:49.498Z,80.83
2018-11-23T07:40:31.611Z,65.50
2018-11-23T07:43:01.217Z,70.83
2018-11-23T07:45:30.925Z,79.32
2018-11-23T07:48:05.449Z,72.70
2018-11-23T07:50:38.640Z,73.78
2018-11-23T07:53:12.891Z,72.10
2018-11-23T07:55:48.908Z,71.75
2018-11-23T07:58:18.822Z,70.92
2018-11-23T08:00:51.855Z,74.37
2018-11-23T08:03:24.282Z,83.65
2018-11-23T08:05:59.199Z,77.25
2018-11-23T08:08:37.657Z,79.37
2018-11-23T08:11:11.849Z,73.20
2018-11-23T08:13:41.598Z,57.48
2018-11-23T08:16:17.861Z,93.87
2018-11-23T08:18:49.246Z,68.42
2018-11-23T08:21:23.522Z,67.70
2018-11-23T08:23:57.934Z,73.90
2018-11-23T08:26:30.103Z,67.67
2018-11-23T08:29:03.177Z,67.08
2018-11-23T08:31:35.476Z,57.25
2018-11-23T08:34:12.074Z,80.50
2018-11-23T08:36:50.553Z,68.70
2018-11-23T08:39:22.709Z,68.90
2018-11-23T08:41:58.479Z,68.97
2018-11-23T08:44:30.645Z,68.70
2018-11-23T08:47:06.128Z,62.90
2018-11-23T08:49:38.464Z,68.22
2018-11-23T08:52:13.703Z,66.62
2018-11-23T08:54:46.790Z,72.35
2018-11-23T08:57:20.535Z,65.32
2018-11-23T08:59:59.318Z,71.55
2018-11-23T09:02:31.175Z,75.60
2018-11-23T09:05:02.086Z,58.05
2018-11-23T09:07:34.319Z,67.22
2018-11-23T09:10:06.217Z,68.90
2018-11-23T09:12:38.019Z,63.00
2018-11-23T09:15:12.130Z,74.50
2018-11-23T09:17:49.277Z,65.97
2018-11-23T09:20:22.552Z,66.63
2018-11-23T09:22:54.251Z,75.47
2018-11-23T09:25:27.349Z,74.43
2018-11-23T09:28:07.496Z,57.77
2018-11-23T09:30:47.210Z,61.40
2018-11-23T09:33:24.731Z,53.43
2018-11-23T09:36:00.793Z,63.00
2018-11-23T09:38:37.362Z,58.10
2018-11-23T09:41:10.679Z,66.77
2018-11-23T09:43:41.390Z,63.73
2018-11-23T09:46:17.956Z,56.13
2018-11-23T09:48:49.516Z,58.37
2018-11-23T09:51:21.480Z,53.07
2018-11-23T09:53:53.212Z,64.47
2018-11-23T09:56:25.094Z,69.63
2018-11-23T09:58:55.309Z,72.60
2018-11-23T10:01:28.503Z,66.20
2018-11-23T10:04:05.559Z,54.03
2018-11-23T10:06:39.899Z,53.07
2018-11-23T10:09:11.042Z,58.20
2018-11-23T10:11:48.422Z,58.83
2018-11-23T10:14:31.144Z,59.70
2018-11-23T10:17:03.182Z,53.33
2018-11-23T10:19:37.325Z,49.10
2018-11-23T10:22:11.028Z,65.37
2018-11-23T10:24:43.815Z,51.70
2018-11-23T10:27:19.349Z,62.73
2018-11-23T10:29:55.319Z,53.07
2018-11-23T10:32:29.630Z,58.83
2018-11-23T10:35:01.278Z,50.97
2018-11-23T10:37:32.835Z,54.13
2018-11-23T10:40:02.341Z,48.97
2018-11-23T10:42:36.441Z,55.97
2018-11-23T10:45:12.202Z,47.90
2018-11-23T10:47:44.688Z,39.57
2018-11-23T10:50:14.876Z,44.80
2018-11-23T10:52:43.002Z,43.90
2018-11-23T10:55:13.700Z,47.23
2018-11-23T10:57:41.902Z,45.23
2018-11-23T11:00:17.055Z,49.77
2018-11-23T11:02:49.973Z,48.63
2018-11-23T11:05:23.957Z,94.30
2018-11-23T11:07:52.113Z,53.23
2018-11-23T11:10:20.273Z,54.83
2018-11-23T11:12:48.459Z,54.90
2018-11-23T11:15:16.694Z,51.00
2018-11-23T11:17:44.875Z,47.37
2018-11-23T11:20:13.140Z,45.23
2018-11-23T11:22:41.216Z,49.20
2018-11-23T11:25:10.000Z,55.63
2018-11-23T11:27:38.474Z,51.53
2018-11-23T11:30:09.664Z,43.03
2018-11-23T11:32:37.823Z,41.70
2018-11-23T11:35:06.695Z,46.23
2018-11-23T11:37:36.220Z,50.87
2018-11-23T11:40:06.267Z,36.90
2018-11-23T11:42:34.406Z,49.00
2018-11-23T11:45:03.529Z,39.40
2018-11-23T11:47:31.717Z,45.90
2018-11-23T11:49:59.829Z,42.87
2018-11-23T11:52:27.927Z,48.00
2018-11-23T11:54:56.080Z,40.93
2018-11-23T11:57:24.153Z,41.30
2018-11-23T11:59:52.556Z,51.20
2018-11-23T12:02:21.008Z,50.47
2018-11-23T12:04:49.145Z,44.23
2018-11-23T12:07:17.294Z,58.17
2018-11-23T12:09:45.436Z,37.33
2018-11-23T12:12:13.644Z,43.57
2018-11-23T12:14:41.801Z,42.30
2018-11-23T12:17:09.955Z,46.77
2018-11-23T12:19:38.188Z,36.40
2018-11-23T12:22:06.369Z,41.83
2018-11-23T12:24:34.521Z,50.03
2018-11-23T12:27:02.717Z,43.17
2018-11-23T12:29:30.882Z,38.17
2018-11-23T12:31:58.998Z,40.83
2018-11-23T12:34:27.116Z,38.20
2018-11-23T12:36:55.256Z,45.87
2018-11-23T12:39:23.364Z,42.67
2018-11-23T12:41:51.552Z,44.17
2018-11-23T12:44:19.669Z,42.27
2018-11-23T12:46:47.784Z,48.20
2018-11-23T12:49:16.305Z,44.63
2018-11-23T12:51:44.440Z,47.20
2018-11-23T12:54:12.592Z,55.83
2018-11-23T12:56:40.758Z,50.47
2018-11-23T12:59:08.904Z,44.33
2018-11-23T13:01:36.980Z,45.47
2018-11-23T13:04:05.400Z,48.73
2018-11-23T13:06:33.555Z,49.67
2018-11-23T13:09:01.657Z,40.33
2018-11-23T13:11:32.878Z,52.53
2018-11-23T13:14:01.130Z,50.97
2018-11-23T13:16:29.256Z,63.50
2018-11-23T13:18:57.427Z,46.80
2018-11-23T13:21:25.628Z,50.93
2018-11-23T13:23:53.746Z,44.97
2018-11-23T13:26:21.861Z,54.00
2018-11-23T13:28:49.996Z,52.73
2018-11-23T13:31:18.220Z,58.27
2018-11-23T13:33:46.361Z,63.63
2018-11-23T13:36:14.515Z,46.27
2018-11-23T13:38:42.723Z,58.43
2018-11-23T13:41:10.841Z,47.53
2018-11-23T13:43:38.940Z,53.30
2018-11-23T13:46:07.034Z,53.53
2018-11-23T13:48:35.296Z,59.40
2018-11-23T13:51:04.421Z,56.83
2018-11-23T13:53:32.621Z,61.03
2018-11-23T13:56:00.948Z,54.40
2018-11-23T13:58:29.121Z,56.40
2018-11-23T14:00:57.297Z,53.03
2018-11-23T14:03:25.476Z,58.37
2018-11-23T14:05:53.677Z,52.77
2018-11-23T14:08:21.838Z,73.23
2018-11-23T14:10:50.081Z,98.13
2018-11-23T14:13:18.186Z,76.53
2018-11-23T14:15:46.328Z,67.43
2018-11-23T14:18:14.430Z,56.80
2018-11-23T14:20:42.572Z,57.97
2018-11-23T14:23:10.707Z,58.87
2018-11-23T14:25:38.849Z,57.57
2018-11-23T14:28:07.047Z,50.47
2018-11-23T14:30:35.535Z,57.20
2018-11-23T14:33:04.103Z,62.07
2018-11-23T14:35:33.474Z,59.47
2018-11-23T14:38:02.188Z,67.03
2018-11-23T14:40:30.369Z,63.23
2018-11-23T14:42:58.795Z,74.40
2018-11-23T14:45:28.552Z,61.40
2018-11-23T14:47:57.929Z,47.47
2018-11-23T14:50:29.785Z,73.87
2018-11-23T14:52:58.729Z,69.50
2018-11-23T14:55:27.133Z,61.05
2018-11-23T14:57:55.641Z,53.03
2018-11-23T15:00:30.296Z,62.35
2018-11-23T15:02:59.692Z,61.50
2018-11-23T15:05:27.843Z,66.63
2018-11-23T15:07:56.121Z,84.83
2018-11-23T15:10:25.559Z,78.63
2018-11-23T15:12:54.912Z,56.20
2018-11-23T15:15:24.540Z,63.15
2018-11-23T15:17:53.420Z,56.08
2018-11-23T15:20:25.250Z,54.20
2018-11-23T15:22:56.678Z,59.40
2018-11-23T15:25:24.834Z,57.33
2018-11-23T15:27:53.402Z,57.78
2018-11-23T15:30:23.338Z,52.00
2018-11-23T15:32:51.510Z,63.87
2018-11-23T15:35:19.730Z,55.92
2018-11-23T15:37:47.912Z,48.17
2018-11-23T15:40:18.789Z,62.73
2018-11-23T15:42:47.792Z,56.40
2018-11-23T15:45:19.417Z,57.00
2018-11-23T15:47:47.515Z,57.83
2018-11-23T15:50:20.015Z,47.40
2018-11-23T15:52:48.632Z,56.15
2018-11-23T15:55:19.881Z,53.70
2018-11-23T15:57:48.959Z,55.55
2018-11-23T16:00:19.924Z,59.30
2018-11-23T16:02:48.615Z,52.00
2018-11-23T16:05:17.039Z,52.98
2018-11-23T16:07:45.555Z,65.30
2018-11-23T16:10:19.190Z,70.08
2018-11-23T16:12:48.831Z,61.63
2018-11-23T16:15:17.647Z,48.48
2018-11-23T16:17:45.818Z,70.08
2018-11-23T16:20:15.321Z,64.97
2018-11-23T16:22:44.879Z,51.25
2018-11-23T16:25:13.146Z,66.85
2018-11-23T16:27:42.166Z,51.70
2018-11-23T16:30:16.061Z,54.45
2018-11-23T16:32:45.499Z,43.33
2018-11-23T16:35:15.075Z,58.05
2018-11-23T16:37:43.333Z,69.07
2018-11-23T16:40:13.864Z,58.95
2018-11-23T16:42:42.067Z,63.10
2018-11-23T16:45:17.141Z,51.73
2018-11-23T16:47:46.107Z,56.13
2018-11-23T16:50:14.558Z,57.30
2018-11-23T16:52:44.062Z,53.58
2018-11-23T16:55:13.249Z,51.80
2018-11-23T16:57:42.707Z,59.73
2018-11-23T17:00:14.324Z,57.53
2018-11-23T17:02:43.027Z,52.78
2018-11-23T17:05:12.426Z,57.35
2018-11-23T17:07:40.627Z,68.00
2018-11-23T17:10:11.245Z,48.17
2018-11-23T17:12:39.942Z,52.45
2018-11-23T17:15:09.815Z,59.85
2018-11-23T17:17:38.281Z,48.50
2018-11-23T17:20:08.134Z,55.55
2018-11-23T17:22:36.407Z,45.80
2018-11-23T17:25:05.622Z,57.53
2018-11-23T17:27:33.777Z,65.25
2018-11-23T17:30:01.989Z,55.50
2018-11-23T17:32:30.123Z,52.20
2018-11-23T17:34:58.265Z,67.25
2018-11-23T17:37:26.438Z,55.95
2018-11-23T17:39:54.604Z,60.05
2018-11-23T17:42:23.241Z,68.28
2018-11-23T17:44:51.520Z,43.70
2018-11-23T17:47:19.793Z,62.67
2018-11-23T17:49:48.031Z,69.12
2018-11-23T17:52:16.241Z,63.23
2018-11-23T17:54:44.428Z,56.95
2018-11-23T17:57:12.638Z,71.60
2018-11-23T17:59:44.977Z,51.92
2018-11-23T18:02:13.264Z,53.92
2018-11-23T18:04:41.411Z,66.15
2018-11-23T18:07:09.636Z,68.92
2018-11-23T18:09:38.021Z,64.42
2018-11-23T18:12:06.623Z,66.85
2018-11-23T18:14:35.108Z,62.30
2018-11-23T18:17:03.373Z,60.55
2018-11-23T18:19:31.492Z,67.00
2018-11-23T18:21:59.684Z,59.15
2018-11-23T18:24:27.944Z,49.93
2018-11-23T18:26:56.172Z,64.35
2018-11-23T18:29:24.483Z,62.70
2018-11-23T18:31:53.232Z,53.75
2018-11-23T18:34:21.365Z,60.50
2018-11-23T18:36:49.566Z,59.75
2018-11-23T18:39:17.864Z,58.83
2018-11-23T18:41:48.201Z,63.98
2018-11-23T18:44:16.498Z,51.63
2018-11-23T18:46:44.777Z,62.15
2018-11-23T18:49:13.015Z,247.93
2018-11-23T18:51:41.170Z,58.45
2018-11-23T18:54:09.444Z,64.10
2018-11-23T18:56:37.762Z,56.33
2018-11-23T18:59:05.956Z,62.23
2018-11-23T19:02:58.778Z,54.40
2018-11-23T19:08:09.120Z,47.38
2018-11-23T19:10:37.751Z,62.58
2018-11-23T19:13:06.296Z,56.75
2018-11-23T19:15:34.627Z,42.80
2018-11-23T19:18:02.932Z,50.55
2018-11-23T19:20:31.128Z,55.73
2018-11-23T19:22:59.257Z,54.38
2018-11-23T19:25:27.437Z,64.60
2018-11-23T19:27:55.615Z,51.85
2018-11-23T19:30:28.755Z,60.40
2018-11-23T19:32:53.324Z,44.58
2018-11-23T19:35:21.551Z,50.03
2018-11-23T19:37:49.796Z,50.25
2018-11-23T19:40:17.917Z,50.38
2018-11-23T19:42:46.133Z,43.55
2018-11-23T19:46:17.493Z,49.15
2018-11-23T19:48:45.681Z,53.30
2018-11-23T19:51:13.951Z,48.48
2018-11-23T19:53:42.084Z,49.98
2018-11-23T19:56:10.285Z,64.95
2018-11-23T19:58:38.487Z,55.48
2018-11-23T20:01:06.704Z,59.03
2018-11-23T20:03:34.885Z,67.50
2018-11-23T20:06:03.066Z,51.90
2018-11-23T20:08:31.286Z,46.37
2018-11-23T20:10:59.430Z,52.83
2018-11-23T20:13:27.600Z,46.65
2018-11-23T20:15:55.994Z,46.88
2018-11-23T20:18:24.173Z,48.87
2018-11-23T20:20:52.334Z,54.38
2018-11-23T20:23:20.542Z,40.55
2018-11-23T20:25:48.665Z,46.83
2018-11-23T20:28:16.917Z,38.92
2018-11-23T20:30:45.207Z,44.55
2018-11-23T20:33:13.454Z,45.63
2018-11-23T20:35:41.595Z,46.30
2018-11-23T20:38:09.821Z,45.88
2018-11-23T20:40:38.406Z,41.20
2018-11-23T20:43:06.599Z,41.10
2018-11-23T20:45:34.824Z,54.13
2018-11-23T20:48:03.150Z,52.17
2018-11-23T20:50:31.356Z,46.50
2018-11-23T20:52:59.534Z,48.38
2018-11-23T20:55:27.733Z,58.48
2018-11-23T20:57:55.994Z,45.48
2018-11-23T21:00:24.146Z,51.20
2018-11-23T21:02:53.126Z,56.45
2018-11-23T21:05:22.349Z,42.73
2018-11-23T21:07:50.970Z,55.58
2018-11-23T21:10:20.900Z,49.18
2018-11-23T21:12:49.038Z,41.45
2018-11-23T21:15:26.174Z,44.60
2018-11-23T21:17:54.546Z,42.33
2018-11-23T21:20:23.113Z,40.95
2018-11-23T21:22:51.252Z,37.05
2018-11-23T21:25:19.409Z,50.65
2018-11-23T21:27:47.633Z,49.93
2018-11-23T21:30:16.991Z,44.05
2018-11-23T21:32:45.162Z,46.02
2018-11-23T21:35:13.609Z,40.98
2018-11-23T21:37:41.836Z,40.17
2018-11-23T21:40:12.069Z,41.80
2018-11-23T21:42:40.220Z,44.35
2018-11-23T21:45:14.168Z,36.65
2018-11-23T21:47:42.259Z,43.65
2018-11-23T21:50:24.623Z,49.10
2018-11-23T21:52:45.701Z,41.08
2018-11-23T21:55:16.848Z,39.25
2018-11-23T21:57:45.082Z,37.83
2018-11-23T22:00:14.201Z,45.60
2018-11-23T22:02:42.535Z,46.18
2018-11-23T22:05:10.770Z,51.80
2018-11-23T22:07:39.055Z,40.38
2018-11-23T22:10:17.780Z,34.10
2018-11-23T22:12:45.922Z,43.83
2018-11-23T22:15:23.795Z,36.13
2018-11-23T22:17:53.129Z,40.48
2018-11-23T22:20:22.057Z,36.08
2018-11-23T22:22:50.986Z,31.68
2018-11-23T22:25:20.429Z,32.90
2018-11-23T22:27:48.666Z,31.80
2018-11-23T22:30:19.328Z,39.85
2018-11-23T22:32:47.689Z,32.38
2018-11-23T22:35:15.801Z,39.98
2018-11-23T22:37:44.004Z,28.80
2018-11-23T22:40:13.378Z,33.48
2018-11-23T22:42:42.863Z,40.17
2018-11-23T22:45:12.110Z,40.35
2018-11-23T22:47:40.240Z,33.60
2018-11-23T22:50:10.981Z,35.60
2018-11-23T22:52:39.244Z,33.10
2018-11-23T22:55:09.091Z,34.10
2018-11-23T22:57:37.839Z,29.48
2018-11-23T23:00:20.159Z,26.62
2018-11-23T23:02:49.126Z,32.03
2018-11-23T23:05:17.533Z,37.90
2018-11-23T23:07:46.049Z,32.30
2018-11-23T23:10:14.260Z,38.33
2018-11-23T23:12:42.482Z,36.35
2018-11-23T23:15:11.625Z,38.75
2018-11-23T23:17:40.410Z,33.13
2018-11-23T23:20:10.277Z,41.45
2018-11-23T23:22:38.665Z,42.30
2018-11-23T23:25:08.695Z,34.03
2018-11-23T23:27:37.518Z,38.48
2018-11-23T23:30:09.449Z,28.98
2018-11-23T23:32:38.824Z,35.10
2018-11-23T23:35:08.618Z,37.20
2018-11-23T23:37:38.081Z,38.13
2018-11-23T23:40:08.688Z,40.35
2018-11-23T23:42:37.602Z,41.85
2018-11-23T23:45:09.202Z,35.60
2018-11-23T23:47:37.896Z,29.75
2018-11-23T23:50:09.486Z,36.70
2018-11-23T23:52:37.852Z,32.83
2018-11-23T23:55:07.312Z,43.00
2018-11-23T23:57:35.451Z,33.38
